createdAt,value
2023-09-08T00:04:14.409Z,1023.98
2023-09-08T00:14:19.682Z,1023.90
2023-09-08T00:24:25.143Z,1023.85
2023-09-08T00:34:30.385Z,1023.71
2023-09-08T00:44:35.702Z,1023.69
2023-09-08T00:54:41.005Z,1023.75
2023-09-08T01:04:46.205Z,1023.72
2023-09-08T01:14:51.577Z,1023.69
2023-09-08T01:24:57.193Z,1023.63
2023-09-08T01:35:02.176Z,1023.60
2023-09-08T01:45:07.189Z,1023.59
2023-09-08T01:55:12.970Z,1023.56
2023-09-08T02:05:18.581Z,1023.52
2023-09-08T02:15:24.029Z,1023.46
2023-09-08T02:25:29.605Z,1023.43
2023-09-08T02:35:35.242Z,1023.35
2023-09-08T02:45:40.437Z,1023.33
2023-09-08T02:55:46.100Z,1023.25
2023-09-08T03:05:51.598Z,1023.21
2023-09-08T03:15:56.956Z,1023.17
2023-09-08T03:26:02.515Z,1023.09
2023-09-08T03:36:07.956Z,1023.13
2023-09-08T03:46:13.860Z,1023.20
2023-09-08T03:56:19.326Z,1023.17
2023-09-08T04:06:25.433Z,1023.22
2023-09-08T04:16:30.599Z,1023.20
2023-09-08T04:26:35.615Z,1023.24
2023-09-08T04:36:40.810Z,1023.29
2023-09-08T04:46:46.357Z,1023.32
2023-09-08T04:56:52.360Z,1023.31
2023-09-08T05:06:57.695Z,1023.35
2023-09-08T05:17:03.068Z,1023.41
2023-09-08T05:27:08.275Z,1023.37
2023-09-08T05:37:13.554Z,1023.34
2023-09-08T05:47:18.906Z,1023.31
2023-09-08T05:57:24.115Z,1023.41
2023-09-08T06:07:29.782Z,1023.41
2023-09-08T06:17:35.522Z,1023.33
2023-09-08T06:27:40.910Z,1023.30
2023-09-08T06:37:46.411Z,1023.32
2023-09-08T06:47:52.490Z,1023.24
2023-09-08T06:57:58.078Z,1023.22
2023-09-08T07:08:03.273Z,1023.19
2023-09-08T07:18:08.749Z,1023.21
2023-09-08T07:28:14.295Z,1023.29
2023-09-08T07:38:19.472Z,1023.22
2023-09-08T07:48:24.815Z,1023.29
2023-09-08T07:58:31.070Z,1023.28
2023-09-08T08:08:36.432Z,1023.36
2023-09-08T08:18:42.508Z,1023.32
2023-09-08T08:28:47.730Z,1023.26
2023-09-08T08:38:52.943Z,1023.22
2023-09-08T08:48:58.071Z,1023.19
2023-09-08T08:59:03.750Z,1023.12
2023-09-08T09:09:09.088Z,1023.13
2023-09-08T09:19:14.541Z,1023.12
2023-09-08T09:29:19.972Z,1023.09
2023-09-08T09:39:25.708Z,1023.07
2023-09-08T09:49:31.155Z,1022.98
2023-09-08T09:59:37.202Z,1022.88
2023-09-08T10:09:42.494Z,1022.83
2023-09-08T10:19:49.280Z,1022.75
2023-09-08T10:29:56.622Z,1022.66
2023-09-08T10:40:02.450Z,1022.61
2023-09-08T10:50:09.129Z,1022.56
2023-09-08T11:00:14.626Z,1022.56
2023-09-08T11:10:19.842Z,1022.46
2023-09-08T11:20:25.527Z,1022.47
2023-09-08T11:30:31.227Z,1022.43
2023-09-08T11:40:37.183Z,1022.37
2023-09-08T11:50:44.326Z,1022.34
2023-09-08T12:00:51.045Z,1022.25
2023-09-08T12:10:56.495Z,1022.13
2023-09-08T12:21:01.595Z,1021.99
2023-09-08T12:31:07.460Z,1021.87
2023-09-08T12:41:12.525Z,1021.78
2023-09-08T12:51:17.753Z,1021.69
2023-09-08T13:01:23.156Z,1021.62
2023-09-08T13:11:28.800Z,1021.57
2023-09-08T13:21:34.434Z,1021.41
2023-09-08T13:31:40.089Z,1021.32
2023-09-08T13:41:45.397Z,1021.29
2023-09-08T13:51:52.610Z,1021.28
2023-09-08T14:02:22.980Z,1021.13
2023-09-08T14:22:16.968Z,1020.96
2023-09-08T14:32:21.963Z,1021.01
2023-09-08T14:42:28.146Z,1020.98
2023-09-08T14:52:33.595Z,1020.92
2023-09-08T15:02:39.280Z,1020.89
2023-09-08T15:12:44.867Z,1020.92
2023-09-08T15:22:49.971Z,1020.83
2023-09-08T15:32:55.440Z,1020.77
2023-09-08T15:43:01.056Z,1020.70
2023-09-08T15:53:06.592Z,1020.67
2023-09-08T16:03:12.236Z,1020.58
2023-09-08T16:13:17.586Z,1020.55
2023-09-08T16:23:22.815Z,1020.50
2023-09-08T16:33:29.065Z,1020.36
2023-09-08T16:43:34.947Z,1020.33
2023-09-08T16:53:41.108Z,1020.38
2023-09-08T17:03:46.534Z,1020.41
2023-09-08T17:13:51.804Z,1020.42
2023-09-08T17:23:57.098Z,1020.49
2023-09-08T17:34:02.475Z,1020.56
2023-09-08T17:44:08.011Z,1020.58
2023-09-08T17:54:13.339Z,1020.49
2023-09-08T18:04:18.947Z,1020.57
2023-09-08T18:14:24.689Z,1020.60
2023-09-08T18:24:30.293Z,1020.47
2023-09-08T18:34:35.652Z,1020.48
2023-09-08T18:44:40.769Z,1020.47
2023-09-08T18:54:46.378Z,1020.42
2023-09-08T19:04:52.468Z,1020.39
2023-09-08T19:14:58.103Z,1020.43
2023-09-08T19:25:03.354Z,1020.48
2023-09-08T19:35:09.235Z,1020.49
2023-09-08T19:45:14.340Z,1020.52
2023-09-08T19:55:19.870Z,1020.50
2023-09-08T20:05:25.583Z,1020.44
2023-09-08T20:15:30.677Z,1020.46
2023-09-08T20:25:36.324Z,1020.41
2023-09-08T20:35:41.534Z,1020.54
2023-09-08T20:45:46.891Z,1020.55
2023-09-08T20:55:52.524Z,1020.60
2023-09-08T21:05:57.822Z,1020.52
2023-09-08T21:16:02.974Z,1020.47
2023-09-08T21:26:08.523Z,1020.41
2023-09-08T21:36:14.057Z,1020.36
2023-09-08T21:46:19.423Z,1020.30
2023-09-08T21:56:24.677Z,1020.33
2023-09-08T22:06:29.671Z,1020.39
2023-09-08T22:16:35.388Z,1020.34
2023-09-08T22:26:40.943Z,1020.31
2023-09-08T22:36:46.182Z,1020.34
2023-09-08T22:46:51.098Z,1020.37
2023-09-08T22:56:56.621Z,1020.32
2023-09-08T23:07:01.769Z,1020.35
2023-09-08T23:17:07.747Z,1020.37
2023-09-08T23:27:13.160Z,1020.33
2023-09-08T23:37:18.416Z,1020.25
2023-09-08T23:47:26.730Z,1020.18
2023-09-08T23:57:31.931Z,1020.08
